Time;durP1;ratioP1;P1;durP2;ratioP2;P2;SDS_P1;SDS_P2;PMS_P1;PMS_P2;Temp;Humidity;BMP_temperature;BMP_pressure;BME280_temperature;BME280_humidity;BME280_pressure;Samples;Min_cycle;Max_cycle;Signal;HPM_P1;HPM_P2
2023/01/11 00:01:31;;;;;;;;;;;;;;;26.12;42.97;94577.56;4950996;28;7216;-72
2023/01/11 00:04:08;;;;;;;;;;;;;;;26.11;42.60;94587.09;4950499;28;7037;-72
2023/01/11 00:06:45;;;;;;;;;;;;;;;26.12;42.43;94587.88;4985159;28;7027;-71
2023/01/11 00:09:17;;;;;;;;;;;;;;;26.13;42.57;94587.34;4953735;29;8730;-71
2023/01/11 00:11:43;;;;;;;;;;;;;;;26.12;42.58;94583.06;4977756;28;7024;-71
2023/01/11 00:14:09;;;;;;;;;;;;;;;26.14;42.89;94577.81;4946961;28;9101;-71
2023/01/11 00:16:35;;;;;;;;;;;;;;;26.11;42.62;94569.81;4948107;28;7266;-71
2023/01/11 00:19:01;;;;;;;;;;;;;;;26.10;42.61;94571.06;4950613;28;9403;-72
2023/01/11 00:21:29;;;;;;;;;;;;;;;26.09;42.64;94572.31;4965416;28;8478;-71
2023/01/11 00:24:01;;;;;;;;;;;;;;;26.08;42.40;94582.59;4949979;28;9034;-71
2023/01/11 00:26:28;;;;;;;;;;;;;;;26.08;42.87;94577.09;4952618;28;9020;-72
2023/01/11 00:28:54;;;;;;;;;;;;;;;26.06;42.93;94579.56;4945191;28;7032;-71
2023/01/11 00:31:27;;;;;;;;;;;;;;;26.08;42.46;94577.09;4967938;28;9165;-71
2023/01/11 00:33:55;;;;;;;;;;;;;;;26.08;42.46;94571.56;4952885;28;7266;-71
2023/01/11 00:37:09;;;;;;;;;;;;;;;26.09;42.87;94570.31;4950904;28;8635;-71
2023/01/11 00:39:35;;;;;;;;;;;;;;;26.10;42.77;94573.81;4946228;28;7134;-71
2023/01/11 00:50:38;;;;;;;;;;;;;;;26.08;43.13;94568.03;4955244;28;9053;-71
2023/01/11 00:53:05;;;;;;;;;;;;;;;26.07;42.44;94563.78;4946757;28;9002;-71
2023/01/11 00:55:35;;;;;;;;;;;;;;;26.06;42.96;94560.28;4940728;28;8786;-71
2023/01/11 00:58:01;;;;;;;;;;;;;;;26.06;43.06;94556.78;4948153;28;9422;-71
2023/01/11 01:00:32;;;;;;;;;;;;;;;26.06;42.74;94559.53;4956856;28;7022;-71
2023/01/11 01:03:39;;;;;;;;;;;;;;;26.05;43.03;94558.81;4956965;28;7256;-71
2023/01/11 01:06:16;;;;;;;;;;;;;;;26.07;42.35;94570.06;4956641;28;9487;-71
2023/01/11 01:08:57;;;;;;;;;;;;;;;26.05;42.57;94567.06;4945774;28;7031;-71
2023/01/11 01:11:32;;;;;;;;;;;;;;;26.04;43.33;94560.03;4940485;28;9154;-71
2023/01/11 01:16:51;;;;;;;;;;;;;;;26.06;42.93;94570.56;4956495;28;7353;-71
2023/01/11 01:19:21;;;;;;;;;;;;;;;26.04;42.53;94564.81;4953348;28;7287;-71
2023/01/11 01:21:49;;;;;;;;;;;;;;;26.04;42.17;94556.53;4956362;28;9154;-71
2023/01/11 01:24:21;;;;;;;;;;;;;;;26.02;42.47;94561.81;4955649;28;7259;-71
2023/01/11 01:26:58;;;;;;;;;;;;;;;26.03;43.00;94569.56;4958726;28;9205;-71
2023/01/11 01:29:25;;;;;;;;;;;;;;;26.03;42.60;94555.06;4952882;28;8920;-71
2023/01/11 01:31:51;;;;;;;;;;;;;;;26.03;42.46;94558.53;4986320;28;7071;-71
2023/01/11 01:34:22;;;;;;;;;;;;;;;26.03;42.91;94564.03;4958866;28;7054;-71
2023/01/11 01:37:14;;;;;;;;;;;;;;;26.02;42.63;94576.34;4952875;28;7212;-71
2023/01/11 01:39:40;;;;;;;;;;;;;;;26.01;43.35;94568.59;4966324;28;7316;-71
2023/01/11 01:42:22;;;;;;;;;;;;;;;26.01;43.09;94569.31;4958918;28;7680;-72
2023/01/11 01:44:55;;;;;;;;;;;;;;;26.01;42.58;94561.06;4958948;28;7241;-71
2023/01/11 01:47:33;;;;;;;;;;;;;;;26.02;43.15;94562.56;4983738;28;9241;-71
2023/01/11 01:50:10;;;;;;;;;;;;;;;26.01;42.50;94552.06;4952842;28;7192;-72
2023/01/11 01:52:40;;;;;;;;;;;;;;;26.01;42.39;94555.53;4964568;28;8992;-72
2023/01/11 01:55:26;;;;;;;;;;;;;;;26.01;42.89;94558.28;4949913;28;7161;-71
2023/01/11 01:57:56;;;;;;;;;;;;;;;26.01;42.65;94550.03;4951599;28;9192;-71
2023/01/11 02:00:22;;;;;;;;;;;;;;;26.02;42.65;94543.28;4967784;28;7019;-71
2023/01/11 02:02:51;;;;;;;;;;;;;;;26.02;42.96;94550.78;4948374;28;8986;-71
2023/01/11 02:05:18;;;;;;;;;;;;;;;26.04;42.57;94549.03;4952141;28;7076;-72
2023/01/11 02:07:50;;;;;;;;;;;;;;;26.03;42.38;94544.03;4950882;28;9020;-71
2023/01/11 02:10:21;;;;;;;;;;;;;;;26.03;43.16;94541.28;4950831;28;9505;-71
2023/01/11 02:13:11;;;;;;;;;;;;;;;26.03;42.47;94544.03;4948080;28;8936;-71
2023/01/11 02:15:37;;;;;;;;;;;;;;;26.03;42.58;94550.25;4964474;28;7281;-72
2023/01/11 02:18:12;;;;;;;;;;;;;;;26.02;43.08;94545.28;4966543;28;7035;-72
2023/01/11 02:20:58;;;;;;;;;;;;;;;26.02;42.35;94529.50;4949344;28;8598;-72
2023/01/11 02:24:08;;;;;;;;;;;;;;;26.01;43.07;94524.50;4958631;28;7263;-72
2023/01/11 02:26:54;;;;;;;;;;;;;;;26.02;43.06;94520.47;4954578;28;9385;-72
2023/01/11 02:29:47;;;;;;;;;;;;;;;26.01;42.43;94516.94;4955225;28;9163;-72
2023/01/11 02:32:26;;;;;;;;;;;;;;;26.00;42.92;94515.47;4946715;28;7237;-72
2023/01/11 02:35:30;;;;;;;;;;;;;;;26.01;43.19;94516.94;4947536;28;9052;-72
2023/01/11 02:38:14;;;;;;;;;;;;;;;26.01;42.63;94505.94;4955982;28;9056;-72
2023/01/11 02:40:58;;;;;;;;;;;;;;;26.01;42.61;94500.41;4956052;28;7307;-72
2023/01/11 02:46:58;;;;;;;;;;;;;;;26.00;42.85;94490.66;4926813;29;9066;-72
2023/01/11 02:49:39;;;;;;;;;;;;;;;26.00;42.99;94496.19;4929941;29;7320;-72
2023/01/11 02:52:31;;;;;;;;;;;;;;;26.01;42.18;94494.91;4913908;29;6869;-72
2023/01/11 02:55:02;;;;;;;;;;;;;;;26.01;42.41;94491.41;4927272;28;9033;-69
2023/01/11 02:57:34;;;;;;;;;;;;;;;26.00;43.00;94496.19;4915212;29;7385;-71
2023/01/11 03:00:01;;;;;;;;;;;;;;;26.01;42.52;94494.91;4908525;29;7261;-71
2023/01/11 03:02:32;;;;;;;;;;;;;;;26.00;42.54;94492.66;4898209;29;7027;-72
2023/01/11 03:05:14;;;;;;;;;;;;;;;26.00;43.09;94504.44;4912062;29;7330;-72
2023/01/11 03:07:48;;;;;;;;;;;;;;;26.00;42.58;94493.41;4911798;29;7237;-72
2023/01/11 03:10:23;;;;;;;;;;;;;;;26.01;42.51;94494.19;4906299;29;8602;-72
2023/01/11 03:13:36;;;;;;;;;;;;;;;26.00;42.75;94489.91;4908109;29;7450;-71
2023/01/11 03:16:37;;;;;;;;;;;;;;;25.98;43.02;94495.94;4939851;28;7637;-72
2023/01/11 03:19:05;;;;;;;;;;;;;;;26.00;42.42;94479.63;4942280;28;9035;-72
2023/01/11 03:22:25;;;;;;;;;;;;;;;26.00;42.83;94476.88;4933324;28;8885;-72
2023/01/11 03:25:03;;;;;;;;;;;;;;;26.01;42.48;94477.63;4948420;28;8464;-72
2023/01/11 03:27:39;;;;;;;;;;;;;;;26.00;42.42;94473.38;4958916;28;9346;-72
2023/01/11 03:30:17;;;;;;;;;;;;;;;26.00;42.66;94471.38;4965592;28;9510;-72
2023/01/11 03:32:50;;;;;;;;;;;;;;;26.01;42.72;94483.16;4949981;28;7222;-72
2023/01/11 03:35:35;;;;;;;;;;;;;;;25.99;42.73;94469.13;4951542;28;7245;-72
2023/01/11 03:38:32;;;;;;;;;;;;;;;25.98;42.79;94456.59;4944074;28;6949;-72
2023/01/11 03:41:12;;;;;;;;;;;;;;;26.00;42.49;94454.09;4915487;29;7125;-72
2023/01/11 03:43:45;;;;;;;;;;;;;;;25.97;42.42;94444.81;4913581;29;8984;-72
2023/01/11 03:46:23;;;;;;;;;;;;;;;25.99;42.63;94430.56;4922568;29;9239;-72
2023/01/11 03:49:17;;;;;;;;;;;;;;;25.97;42.70;94428.28;4909048;29;9220;-72
2023/01/11 03:51:58;;;;;;;;;;;;;;;25.97;42.58;94424.78;4901628;29;7058;-72
2023/01/11 03:55:06;;;;;;;;;;;;;;;25.99;42.03;94414.75;4912529;29;7891;-72
2023/01/11 03:57:50;;;;;;;;;;;;;;;25.98;42.63;94410.50;4910585;29;7098;-72
2023/01/11 04:00:21;;;;;;;;;;;;;;;25.96;42.53;94404.75;4907779;29;7047;-72
2023/01/11 04:03:08;;;;;;;;;;;;;;;25.98;42.42;94407.00;4911819;29;9332;-72
2023/01/11 04:05:52;;;;;;;;;;;;;;;25.98;42.46;94412.50;4913991;29;7285;-72
2023/01/11 04:08:47;;;;;;;;;;;;;;;25.98;43.03;94415.25;4894297;29;7220;-72
2023/01/11 04:11:47;;;;;;;;;;;;;;;25.96;42.44;94401.25;4875881;29;7258;-72
2023/01/11 04:14:13;;;;;;;;;;;;;;;25.96;42.84;94393.75;4877205;29;8406;-72
2023/01/11 04:16:51;;;;;;;;;;;;;;;25.96;42.78;94388.22;4906685;29;7020;-72
2023/01/11 04:19:17;;;;;;;;;;;;;;;25.91;42.15;94391.00;4925646;29;7355;-72
2023/01/11 04:21:44;;;;;;;;;;;;;;;25.91;42.41;94385.50;4919989;29;7279;-72
2023/01/11 04:24:24;;;;;;;;;;;;;;;25.90;42.34;94373.72;4914080;29;7045;-72
2023/01/11 04:26:52;;;;;;;;;;;;;;;25.88;42.86;94381.75;4925522;29;7209;-72
2023/01/11 04:29:30;;;;;;;;;;;;;;;25.89;42.98;94377.00;4925753;29;7185;-72
2023/01/11 04:31:57;;;;;;;;;;;;;;;25.90;42.74;94381.25;4921004;29;7119;-72
2023/01/11 04:34:33;;;;;;;;;;;;;;;25.90;42.67;94379.22;4919770;29;7642;-72
2023/01/11 04:37:17;;;;;;;;;;;;;;;25.92;42.75;94376.75;4920239;28;7031;-72
2023/01/11 04:39:43;;;;;;;;;;;;;;;25.96;43.09;94390.97;4910420;29;7203;-72
2023/01/11 04:42:17;;;;;;;;;;;;;;;25.95;42.73;94389.47;4906586;29;7096;-72
2023/01/11 04:44:44;;;;;;;;;;;;;;;25.95;43.00;94392.22;4901526;29;9326;-72
2023/01/11 04:47:10;;;;;;;;;;;;;;;25.88;42.51;94386.53;4918667;28;8795;-72
2023/01/11 04:49:36;;;;;;;;;;;;;;;25.88;43.31;94398.28;4951457;28;6988;-72
2023/01/11 04:52:03;;;;;;;;;;;;;;;25.88;42.43;94392.78;4980466;28;7018;-72
2023/01/11 04:54:31;;;;;;;;;;;;;;;25.87;42.89;94399.56;4958436;28;7473;-72
2023/01/11 04:57:06;;;;;;;;;;;;;;;25.87;43.23;94399.56;4948071;28;7233;-72
2023/01/11 04:59:36;;;;;;;;;;;;;;;25.86;42.49;94400.81;4953467;28;7273;-72
2023/01/11 05:02:02;;;;;;;;;;;;;;;25.86;43.08;94400.81;4946024;28;7308;-72
2023/01/11 05:04:30;;;;;;;;;;;;;;;25.86;42.47;94394.56;4951053;28;7016;-72
2023/01/11 05:07:01;;;;;;;;;;;;;;;25.91;42.68;94394.53;4951008;28;9072;-72
2023/01/11 05:09:32;;;;;;;;;;;;;;;25.90;42.72;94392.28;4960838;28;9609;-72
2023/01/11 05:12:00;;;;;;;;;;;;;;;25.90;43.21;94384.03;4949480;28;6875;-72
2023/01/11 05:14:26;;;;;;;;;;;;;;;25.88;43.20;94387.25;4983423;28;7601;-72
2023/01/11 05:16:57;;;;;;;;;;;;;;;25.88;42.57;94381.75;4982512;28;7135;-72
2023/01/11 05:19:23;;;;;;;;;;;;;;;25.90;42.98;94378.50;4943379;28;9370;-72
2023/01/11 05:21:50;;;;;;;;;;;;;;;25.86;42.55;94372.53;4982540;28;7173;-72
2023/01/11 05:24:18;;;;;;;;;;;;;;;25.89;42.64;94380.50;4960414;28;7233;-70
2023/01/11 05:26:47;;;;;;;;;;;;;;;25.90;42.59;94384.03;4960857;28;6976;-71
2023/01/11 05:29:15;;;;;;;;;;;;;;;25.87;42.45;94382.28;4983991;28;7646;-72
2023/01/11 05:31:41;;;;;;;;;;;;;;;25.87;42.84;94377.53;4984220;28;7048;-73
2023/01/11 05:34:12;;;;;;;;;;;;;;;25.91;42.07;94363.44;4960464;28;9539;-71
2023/01/11 05:36:38;;;;;;;;;;;;;;;25.89;42.63;94369.50;4964684;28;7052;-71
2023/01/11 05:39:05;;;;;;;;;;;;;;;25.91;42.14;94357.94;4936103;28;8965;-72
2023/01/11 05:41:31;;;;;;;;;;;;;;;25.89;42.09;94350.19;4942612;28;7255;-71
2023/01/11 05:47:08;;;;;;;;;;;;;;;25.86;42.84;94345.69;4953340;28;7201;-71
2023/01/11 05:49:38;;;;;;;;;;;;;;;25.86;43.13;94347.72;4954161;28;6976;-72
2023/01/11 05:52:04;;;;;;;;;;;;;;;25.83;42.36;94346.75;4952841;28;7061;-71
2023/01/11 05:54:31;;;;;;;;;;;;;;;25.81;42.27;94351.28;4948683;28;7804;-72
2023/01/11 05:57:10;;;;;;;;;;;;;;;25.79;42.42;94349.03;4952970;28;7248;-71
2023/01/11 05:59:36;;;;;;;;;;;;;;;25.83;43.01;94368.78;4956451;28;7368;-70
2023/01/11 06:02:03;;;;;;;;;;;;;;;25.83;43.08;94368.78;4944033;28;7426;-70
2023/01/11 06:04:55;;;;;;;;;;;;;;;25.87;42.81;94374.00;4968621;28;7081;-71
2023/01/11 06:07:36;;;;;;;;;;;;;;;25.89;43.33;94372.25;4956194;28;9130;-71
2023/01/11 06:10:27;;;;;;;;;;;;;;;25.93;42.31;94360.94;4953285;28;7115;-71
2023/01/11 06:13:28;;;;;;;;;;;;;;;25.94;42.78;94367.94;4948332;28;7255;-71
2023/01/11 06:16:16;;;;;;;;;;;;;;;25.93;42.29;94367.19;4974573;28;7057;-71
2023/01/11 06:18:53;;;;;;;;;;;;;;;25.94;42.41;94371.47;4954980;28;8681;-71
2023/01/11 06:21:28;;;;;;;;;;;;;;;25.92;42.58;94365.72;4955682;28;8689;-71
2023/01/11 06:24:27;;;;;;;;;;;;;;;25.92;42.32;94364.97;4988602;28;7033;-71
2023/01/11 06:27:38;;;;;;;;;;;;;;;25.91;42.17;94369.72;4932982;29;7023;-69
2023/01/11 06:30:07;;;;;;;;;;;;;;;25.91;42.78;94375.22;4910270;29;9185;-71
2023/01/11 06:32:35;;;;;;;;;;;;;;;25.92;42.46;94365.72;4893856;29;9340;-69
2023/01/11 06:35:01;;;;;;;;;;;;;;;25.93;42.62;94380.97;4907049;29;9309;-69
2023/01/11 06:38:05;;;;;;;;;;;;;;;25.96;42.20;94379.19;4896878;29;9423;-69
2023/01/11 06:40:33;;;;;;;;;;;;;;;25.97;42.47;94370.41;4893859;29;8816;-70
2023/01/11 06:42:59;;;;;;;;;;;;;;;25.95;41.65;94359.16;4910239;29;7216;-71
2023/01/11 06:45:25;;;;;;;;;;;;;;;25.97;41.32;94364.16;4834580;29;7268;-72
2023/01/11 06:47:51;;;;;;;;;;;;;;;25.92;41.13;94371.22;4839842;29;8833;-72
2023/01/11 06:50:19;;;;;;;;;;;;;;;25.89;41.06;94377.00;4852430;29;7036;-69
2023/01/11 06:52:56;;;;;;;;;;;;;;;25.88;41.54;94370.00;4842982;29;7049;-70
2023/01/11 06:55:27;;;;;;;;;;;;;;;25.89;41.53;94369.50;4838942;29;9119;-71
2023/01/11 06:58:07;;;;;;;;;;;;;;;25.92;41.52;94376.75;4855628;29;8978;-70
2023/01/11 07:00:43;;;;;;;;;;;;;;;25.94;41.34;94360.44;4842038;29;9410;-70
2023/01/11 07:03:11;;;;;;;;;;;;;;;25.99;41.31;94369.91;4883850;29;7222;-71
2023/01/11 07:05:49;;;;;;;;;;;;;;;25.93;41.55;94363.69;4892424;29;8967;-71
2023/01/11 07:08:46;;;;;;;;;;;;;;;25.91;41.24;94350.44;4949699;28;7064;-71
2023/01/11 07:11:25;;;;;;;;;;;;;;;25.92;40.91;94360.19;4950852;28;7110;-72
2023/01/11 07:13:57;;;;;;;;;;;;;;;25.93;41.49;94356.16;4948712;28;7071;-71
2023/01/11 07:16:23;;;;;;;;;;;;;;;25.95;41.85;94348.13;4931601;28;9475;-71
2023/01/11 07:18:49;;;;;;;;;;;;;;;25.94;41.28;94356.94;4921721;28;9101;-71
2023/01/11 07:21:15;;;;;;;;;;;;;;;25.94;40.97;94362.44;4933471;28;7226;-71
2023/01/11 07:23:46;;;;;;;;;;;;;;;25.93;41.55;94361.69;4920496;29;9023;-71
2023/01/11 07:26:21;;;;;;;;;;;;;;;25.94;41.18;94363.19;4928446;28;7025;-71
2023/01/11 07:28:58;;;;;;;;;;;;;;;25.95;41.00;94361.91;4935818;28;7064;-71
2023/01/11 07:31:46;;;;;;;;;;;;;;;25.97;40.83;94359.38;4934435;29;8948;-71
2023/01/11 07:34:12;;;;;;;;;;;;;;;25.93;41.57;94358.94;4954456;28;7465;-71
2023/01/11 07:36:58;;;;;;;;;;;;;;;25.95;41.19;94363.91;4937261;28;7391;-71
2023/01/11 07:39:40;;;;;;;;;;;;;;;25.94;40.87;94368.69;4927501;28;9041;-71
2023/01/11 07:44:54;;;;;;;;;;;;;;;25.92;41.19;94376.75;4943213;28;7035;-71
2023/01/11 07:47:20;;;;;;;;;;;;;;;25.90;41.45;94376.47;4943965;28;9289;-71
2023/01/11 07:50:11;;;;;;;;;;;;;;;25.91;41.32;94378.00;4953286;28;7795;-71
2023/01/11 07:52:48;;;;;;;;;;;;;;;25.90;41.80;94386.78;4945097;28;9196;-71
2023/01/11 07:55:15;;;;;;;;;;;;;;;25.88;41.28;94390.03;4955623;28;9305;-71
2023/01/11 07:57:42;;;;;;;;;;;;;;;25.90;41.78;94389.53;4952775;28;9051;-71
2023/01/11 08:00:13;;;;;;;;;;;;;;;25.89;41.79;94391.53;4985942;28;7548;-71
2023/01/11 08:03:34;;;;;;;;;;;;;;;25.94;41.08;94379.72;4986206;28;9078;-71
2023/01/11 08:06:30;;;;;;;;;;;;;;;25.96;41.19;94379.19;4962469;28;7720;-71
2023/01/11 08:09:30;;;;;;;;;;;;;;;25.98;41.50;94374.69;4944337;29;8299;-71
2023/01/11 08:15:13;;;;;;;;;;;;;;;25.96;41.43;94360.66;4972217;28;7043;-71
2023/01/11 08:17:49;;;;;;;;;;;;;;;25.96;41.95;94355.16;4955086;28;8963;-71
2023/01/11 08:20:15;;;;;;;;;;;;;;;25.97;41.25;94364.91;4953613;28;7022;-71
2023/01/11 08:22:41;;;;;;;;;;;;;;;25.96;41.21;94357.16;4951327;28;9443;-71
2023/01/11 08:25:07;;;;;;;;;;;;;;;25.97;41.58;94358.63;4963527;28;7181;-71
2023/01/11 08:27:33;;;;;;;;;;;;;;;25.93;41.67;94345.16;4951646;28;9045;-71
2023/01/11 08:29:59;;;;;;;;;;;;;;;25.91;41.63;94346.91;4959174;28;9068;-71
2023/01/11 08:32:27;;;;;;;;;;;;;;;25.90;41.23;94337.16;4964125;28;7042;-71
2023/01/11 08:34:58;;;;;;;;;;;;;;;25.93;41.52;94349.91;4950148;28;7114;-71
2023/01/11 08:37:24;;;;;;;;;;;;;;;25.95;41.60;94352.91;4939295;28;9005;-72
2023/01/11 08:39:51;;;;;;;;;;;;;;;25.95;41.14;94353.66;4946366;28;7295;-71
2023/01/11 08:42:19;;;;;;;;;;;;;;;25.95;41.00;94353.66;4965495;28;7183;-71
2023/01/11 08:44:45;;;;;;;;;;;;;;;25.97;41.42;94355.88;4960229;28;7190;-71
2023/01/11 08:47:13;;;;;;;;;;;;;;;25.95;41.45;94353.66;4945700;28;7132;-70
2023/01/11 08:49:49;;;;;;;;;;;;;;;25.96;41.83;94363.41;4987947;28;8983;-71
2023/01/11 08:52:33;;;;;;;;;;;;;;;25.94;41.59;94370.72;4957246;28;9063;-71
2023/01/11 08:55:09;;;;;;;;;;;;;;;25.97;41.10;94366.91;4948771;28;7252;-71
2023/01/11 08:57:38;;;;;;;;;;;;;;;25.97;41.09;94366.91;4973936;28;7323;-71
2023/01/11 09:00:10;;;;;;;;;;;;;;;25.97;41.12;94370.41;4940691;28;6912;-71
2023/01/11 09:02:44;;;;;;;;;;;;;;;25.93;41.42;94372.69;4956154;28;7849;-71
2023/01/11 09:05:41;;;;;;;;;;;;;;;25.97;41.49;94356.63;4957426;28;7214;-71
2023/01/11 09:08:34;;;;;;;;;;;;;;;25.97;40.81;94370.41;4945111;28;7321;-71
2023/01/11 09:14:10;;;;;;;;;;;;;;;25.97;40.95;94388.94;4944978;28;9234;-71
2023/01/11 09:16:50;;;;;;;;;;;;;;;25.96;41.76;94388.22;4953722;28;7222;-71
2023/01/11 09:19:45;;;;;;;;;;;;;;;25.97;40.91;94377.94;4964000;28;7059;-71
2023/01/11 09:22:13;;;;;;;;;;;;;;;25.96;41.04;94377.19;4933240;28;9410;-71
2023/01/11 09:25:16;;;;;;;;;;;;;;;25.97;40.78;94384.19;4946959;28;9120;-71
2023/01/11 09:27:51;;;;;;;;;;;;;;;25.93;41.86;94383.72;4960111;28;9027;-71
2023/01/11 09:30:21;;;;;;;;;;;;;;;25.89;41.69;94377.75;4924630;29;8905;-71
2023/01/11 09:32:49;;;;;;;;;;;;;;;25.92;41.51;94392.50;4935469;28;7059;-71
2023/01/11 09:35:18;;;;;;;;;;;;;;;25.92;41.68;94382.25;4945054;28;8971;-71
2023/01/11 09:37:50;;;;;;;;;;;;;;;25.94;41.37;94388.00;4963288;28;7227;-71
2023/01/11 09:40:58;;;;;;;;;;;;;;;25.92;41.13;94390.50;4917588;29;9160;-71
2023/01/11 09:43:28;;;;;;;;;;;;;;;25.90;41.88;94393.00;4895765;29;9034;-71
2023/01/11 09:46:01;;;;;;;;;;;;;;;25.89;42.11;94386.03;4914693;29;9166;-71
2023/01/11 09:48:36;;;;;;;;;;;;;;;25.87;41.59;94382.28;4932023;28;7246;-71
2023/01/11 09:51:32;;;;;;;;;;;;;;;25.87;41.58;94385.78;4923302;29;7361;-71
2023/01/11 09:54:04;;;;;;;;;;;;;;;25.86;41.94;94383.56;4916810;29;9219;-71
2023/01/11 09:56:45;;;;;;;;;;;;;;;25.88;41.01;94387.25;4932045;29;8953;-71
2023/01/11 09:59:49;;;;;;;;;;;;;;;25.89;41.08;94383.25;4931831;29;7034;-71
2023/01/11 10:02:30;;;;;;;;;;;;;;;25.89;41.83;94377.75;4924649;29;7481;-71
2023/01/11 10:05:24;;;;;;;;;;;;;;;25.88;41.24;94387.25;4914548;29;8998;-71
2023/01/11 10:08:38;;;;;;;;;;;;;;;25.87;42.10;94385.78;4916438;28;9093;-71
2023/01/11 10:14:17;;;;;;;;;;;;;;;25.89;42.08;94383.25;4932774;29;9059;-71
2023/01/11 10:17:07;;;;;;;;;;;;;;;25.87;41.29;94380.28;4915826;29;7050;-70
2023/01/11 10:19:52;;;;;;;;;;;;;;;25.86;42.13;94378.78;4917338;28;7480;-71
2023/01/11 10:22:47;;;;;;;;;;;;;;;25.86;41.34;94372.53;4983203;28;7124;-71
2023/01/11 10:25:32;;;;;;;;;;;;;;;25.87;41.56;94366.50;4943339;28;7069;-71
2023/01/11 10:28:26;;;;;;;;;;;;;;;25.89;41.68;94363.22;4955888;28;7054;-70
2023/01/11 10:37:17;;;;;;;;;;;;;;;25.88;42.06;94365.22;4957998;28;8717;-71
2023/01/11 10:40:28;;;;;;;;;;;;;;;25.89;42.41;94355.72;4952375;28;7408;-69
2023/01/11 10:43:03;;;;;;;;;;;;;;;25.90;41.85;94356.47;4971972;28;8896;-69
2023/01/11 10:45:55;;;;;;;;;;;;;;;25.92;41.47;94346.44;4949728;28;9143;-69
2023/01/11 10:48:39;;;;;;;;;;;;;;;25.92;42.02;94343.66;4939755;28;7304;-69
2023/01/11 10:51:46;;;;;;;;;;;;;;;25.94;41.34;94341.16;4935681;28;7050;-70
2023/01/11 10:54:21;;;;;;;;;;;;;;;25.94;41.97;94340.38;4969463;28;7263;-70
2023/01/11 10:57:14;;;;;;;;;;;;;;;25.93;41.60;94333.38;4950893;28;7025;-69
2023/01/11 11:00:09;;;;;;;;;;;;;;;25.94;41.53;94329.38;4931439;28;7325;-70
2023/01/11 11:03:14;;;;;;;;;;;;;;;25.93;41.59;94319.59;4939430;28;9375;-71
2023/01/11 11:06:17;;;;;;;;;;;;;;;25.94;41.20;94324.59;4952929;28;7289;-71
2023/01/11 11:08:56;;;;;;;;;;;;;;;25.90;41.25;94318.59;4936985;28;7302;-71
2023/01/11 11:11:58;;;;;;;;;;;;;;;25.83;42.09;94315.69;4950489;28;7119;-71
2023/01/11 11:14:47;;;;;;;;;;;;;;;25.79;42.65;94323.50;4929127;28;9894;-71
2023/01/11 11:17:33;;;;;;;;;;;;;;;25.74;42.55;94322.28;4935453;28;8993;-71
2023/01/11 11:20:12;;;;;;;;;;;;;;;25.76;42.28;94330.75;4950048;28;9196;-72
2023/01/11 11:22:55;;;;;;;;;;;;;;;25.75;42.75;94332.00;4951003;28;7235;-71
2023/01/11 11:26:01;;;;;;;;;;;;;;;25.76;42.17;94336.28;4946926;28;7243;-71
2023/01/11 11:28:33;;;;;;;;;;;;;;;25.79;42.54;94338.00;4951425;28;7022;-70
2023/01/11 11:31:04;;;;;;;;;;;;;;;25.80;42.19;94336.75;4952225;28;9330;-70
2023/01/11 11:33:30;;;;;;;;;;;;;;;25.80;41.73;94336.75;4933455;28;8745;-70
2023/01/11 11:36:42;;;;;;;;;;;;;;;25.81;42.35;94332.75;4928833;29;7874;-70
2023/01/11 11:39:28;;;;;;;;;;;;;;;25.82;42.18;94320.44;4913608;29;7313;-70
2023/01/11 11:42:04;;;;;;;;;;;;;;;25.83;41.95;94316.44;4918824;29;7232;-71
2023/01/11 11:44:31;;;;;;;;;;;;;;;25.86;42.63;94323.66;4923467;29;9840;-71
2023/01/11 11:47:02;;;;;;;;;;;;;;;25.84;42.05;94314.41;4922322;29;9299;-71
2023/01/11 11:50:16;;;;;;;;;;;;;;;25.81;42.32;94321.72;4880490;29;9226;-71
2023/01/11 11:52:53;;;;;;;;;;;;;;;25.76;43.42;94321.75;4818306;29;9592;-71
2023/01/11 11:55:30;;;;;;;;;;;;;;;25.72;43.53;94307.50;4817035;29;9393;-71
2023/01/11 11:58:03;;;;;;;;;;;;;;;25.69;42.82;94308.53;4835034;29;8523;-71
2023/01/11 12:00:39;;;;;;;;;;;;;;;25.67;43.24;94311.03;4841515;29;7625;-71
2023/01/11 12:03:20;;;;;;;;;;;;;;;25.65;42.82;94300.56;4848880;29;7040;-71
2023/01/11 12:06:06;;;;;;;;;;;;;;;25.65;42.67;94302.56;4822016;29;7050;-71
2023/01/11 12:08:35;;;;;;;;;;;;;;;25.63;43.67;94303.06;4851707;29;7234;-71
2023/01/11 12:11:08;;;;;;;;;;;;;;;25.61;43.28;94305.59;4850620;29;7099;-71
2023/01/11 12:13:41;;;;;;;;;;;;;;;25.60;43.60;94306.13;4815693;29;8763;-71
2023/01/11 12:16:22;;;;;;;;;;;;;;;25.59;44.00;94310.88;4871647;29;7035;-70
2023/01/11 12:18:51;;;;;;;;;;;;;;;25.59;44.06;94310.13;4890797;29;9078;-71
2023/01/11 12:21:29;;;;;;;;;;;;;;;25.64;43.73;94312.84;4898220;29;7188;-70
2023/01/11 12:24:39;;;;;;;;;;;;;;;25.68;44.55;94318.06;4912457;29;7294;-70
2023/01/11 12:27:09;;;;;;;;;;;;;;;25.67;44.49;94308.28;4930563;28;8796;-71
2023/01/11 12:29:40;;;;;;;;;;;;;;;25.67;43.94;94308.28;4944586;28;7004;-71
2023/01/11 12:32:44;;;;;;;;;;;;;;;25.69;44.74;94303.00;4962155;28;6859;-71
2023/01/11 12:35:21;;;;;;;;;;;;;;;25.66;44.24;94307.56;4945185;28;6877;-71
2023/01/11 12:38:13;;;;;;;;;;;;;;;25.65;44.14;94311.56;4945949;28;7245;-71
2023/01/11 12:40:45;;;;;;;;;;;;;;;25.66;44.33;94310.31;4945572;28;9080;-71
2023/01/11 12:43:19;;;;;;;;;;;;;;;25.66;44.02;94318.59;4966149;28;9102;-71
2023/01/11 12:45:52;;;;;;;;;;;;;;;25.68;43.62;94318.81;4931411;28;8981;-72
2023/01/11 12:49:00;;;;;;;;;;;;;;;25.75;44.19;94315.47;4932884;28;7267;-71
2023/01/11 12:51:49;;;;;;;;;;;;;;;25.80;43.90;94308.44;4891122;29;7211;-71
2023/01/11 12:54:32;;;;;;;;;;;;;;;25.84;42.93;94319.91;4892936;29;7128;-71
2023/01/11 12:57:11;;;;;;;;;;;;;;;25.82;42.93;94317.69;4891915;29;7455;-70
2023/01/11 12:59:56;;;;;;;;;;;;;;;25.87;43.34;94316.16;4897291;29;7615;-70
2023/01/11 13:02:26;;;;;;;;;;;;;;;25.83;43.85;94316.44;4878185;29;8977;-71
2023/01/11 13:05:30;;;;;;;;;;;;;;;25.86;43.75;94317.41;4878911;29;7270;-70
2023/01/11 13:12:09;;;;;;;;;;;;;;;25.88;43.64;94332.16;4875559;29;9422;-71
2023/01/11 13:15:15;;;;;;;;;;;;;;;25.92;42.71;94331.88;4889209;29;9014;-71
2023/01/11 13:18:01;;;;;;;;;;;;;;;25.88;43.37;94332.16;4911592;29;7515;-72
2023/01/11 13:20:49;;;;;;;;;;;;;;;25.82;42.78;94339.72;4890561;29;8705;-71
2023/01/11 13:23:34;;;;;;;;;;;;;;;25.80;42.82;94339.50;4913510;29;7046;-71
2023/01/11 13:26:13;;;;;;;;;;;;;;;25.79;43.34;94346.28;4911747;29;7855;-72
2023/01/11 13:28:48;;;;;;;;;;;;;;;25.79;43.36;94343.53;4960750;28;7463;-71
2023/01/11 13:31:23;;;;;;;;;;;;;;;25.77;43.55;94337.78;4962882;28;8995;-71
2023/01/11 13:34:34;;;;;;;;;;;;;;;25.76;43.01;94335.53;4973367;28;9468;-71
2023/01/11 13:37:33;;;;;;;;;;;;;;;25.75;42.91;94340.28;4956054;28;7201;-71
2023/01/11 13:40:09;;;;;;;;;;;;;;;25.76;43.46;94352.06;4965801;28;7208;-71
2023/01/11 13:42:43;;;;;;;;;;;;;;;25.71;43.09;94348.06;4954731;28;7236;-71
2023/01/11 13:45:23;;;;;;;;;;;;;;;25.70;43.94;94341.09;4971500;28;7053;-71
2023/01/11 13:48:12;;;;;;;;;;;;;;;25.67;43.74;94342.09;4973835;28;8883;-71
2023/01/11 13:51:21;;;;;;;;;;;;;;;25.63;44.35;94341.63;4973219;28;8682;-71
2023/01/11 13:58:08;;;;;;;;;;;;;;;25.64;44.26;94337.63;4885518;29;8009;-71
2023/01/11 14:01:18;;;;;;;;;;;;;;;25.68;44.42;94338.09;4880495;29;7448;-71
2023/01/11 14:03:51;;;;;;;;;;;;;;;25.71;44.24;94337.06;4894861;29;7876;-71
2023/01/11 14:06:35;;;;;;;;;;;;;;;25.73;44.27;94339.31;4885394;29;7278;-71
2023/01/11 14:09:14;;;;;;;;;;;;;;;25.74;43.81;94333.28;4888675;29;8709;-70
2023/01/11 14:11:52;;;;;;;;;;;;;;;25.77;44.05;94346.06;4865449;29;8755;-71
2023/01/11 14:14:57;;;;;;;;;;;;;;;25.76;43.62;94336.28;4867724;29;7225;-71
2023/01/11 14:17:56;;;;;;;;;;;;;;;25.77;44.08;94335.03;4873415;29;7270;-72
2023/01/11 14:20:51;;;;;;;;;;;;;;;25.74;44.61;94338.78;4873208;29;8775;-71
2023/01/11 14:23:28;;;;;;;;;;;;;;;25.74;44.48;94338.03;4885394;29;9085;-71
2023/01/11 14:26:31;;;;;;;;;;;;;;;25.76;43.62;94347.28;4871551;29;8740;-72
2023/01/11 14:29:19;;;;;;;;;;;;;;;25.77;44.65;94351.56;4949866;28;7048;-72
2023/01/11 14:32:36;;;;;;;;;;;;;;;25.80;44.54;94353.28;4952041;28;8196;-72
2023/01/11 14:35:46;;;;;;;;;;;;;;;25.79;43.58;94357.31;4955190;28;7354;-72
2023/01/11 14:38:23;;;;;;;;;;;;;;;25.76;44.34;94369.34;4964705;28;9657;-72
2023/01/11 14:41:19;;;;;;;;;;;;;;;25.77;43.86;94373.59;4946023;28;8726;-71
2023/01/11 14:44:07;;;;;;;;;;;;;;;25.76;44.03;94374.84;4951644;28;8575;-71
2023/01/11 14:46:35;;;;;;;;;;;;;;;25.77;44.32;94383.88;4948493;28;9036;-72